createdAt,value
2019-04-04T00:01:47.778Z,5.71
2019-04-04T00:04:16.318Z,5.74
2019-04-04T00:06:46.183Z,5.80
2019-04-04T00:09:15.896Z,5.71
2019-04-04T00:11:46.210Z,5.71
2019-04-04T00:14:16.360Z,5.69
2019-04-04T00:16:46.746Z,5.78
2019-04-04T00:19:18.322Z,5.78
2019-04-04T00:21:48.279Z,5.78
2019-04-04T00:24:18.395Z,5.68
2019-04-04T00:26:48.283Z,5.68
2019-04-04T00:29:18.034Z,5.66
2019-04-04T00:31:49.483Z,5.78
2019-04-04T00:34:19.314Z,5.72
2019-04-04T00:36:49.242Z,5.72
2019-04-04T00:39:18.917Z,5.65
2019-04-04T00:41:49.421Z,5.65
2019-04-04T00:44:19.129Z,5.60
2019-04-04T00:46:49.100Z,5.60
2019-04-04T00:49:19.457Z,5.61
2019-04-04T00:51:49.278Z,5.67
2019-04-04T00:54:19.270Z,5.59
2019-04-04T00:56:49.333Z,5.70
2019-04-04T00:59:19.128Z,5.70
2019-04-04T01:01:49.034Z,5.57
2019-04-04T01:04:19.358Z,5.48
2019-04-04T01:06:49.076Z,5.66
2019-04-04T01:09:19.013Z,5.47
2019-04-04T01:11:50.980Z,5.47
2019-04-04T01:14:20.010Z,5.68
2019-04-04T01:16:49.769Z,5.68
2019-04-04T01:19:19.665Z,5.53
2019-04-04T01:21:53.052Z,5.60
2019-04-04T01:24:21.144Z,5.60
2019-04-04T01:26:51.032Z,5.55
2019-04-04T01:31:48.559Z,5.85
2019-04-04T01:34:20.900Z,6.02
2019-04-04T01:36:51.489Z,6.16
2019-04-04T01:39:21.483Z,5.98
2019-04-04T01:41:51.290Z,5.81
2019-04-04T01:44:21.060Z,5.70
2019-04-04T01:46:50.854Z,5.53
2019-04-04T01:49:22.051Z,5.51
2019-04-04T01:51:51.929Z,5.51
2019-04-04T01:54:21.698Z,5.43
2019-04-04T01:56:51.598Z,5.49
2019-04-04T01:59:21.340Z,5.59
2019-04-04T02:01:51.164Z,5.45
2019-04-04T02:04:24.540Z,5.45
2019-04-04T02:06:52.856Z,5.53
2019-04-04T02:09:22.621Z,5.45
2019-04-04T02:11:52.700Z,5.28
2019-04-04T02:14:22.373Z,5.28
2019-04-04T02:16:52.122Z,5.31
2019-04-04T02:19:24.586Z,5.31
2019-04-04T02:21:53.646Z,5.24
2019-04-04T02:24:23.431Z,5.22
2019-04-04T02:26:53.359Z,5.29
2019-04-04T02:29:23.000Z,5.28
2019-04-04T02:31:55.716Z,5.28
2019-04-04T02:34:25.586Z,5.37
2019-04-04T02:36:55.158Z,5.34
2019-04-04T02:39:24.941Z,5.28
2019-04-04T02:41:54.618Z,5.28
2019-04-04T02:44:24.397Z,5.42
2019-04-04T02:46:54.279Z,5.35
2019-04-04T02:49:27.954Z,5.40
2019-04-04T02:51:55.215Z,5.30
2019-04-04T02:54:25.833Z,5.30
2019-04-04T02:56:56.339Z,5.29
2019-04-04T02:59:26.073Z,5.30
2019-04-04T03:01:56.042Z,5.08
2019-04-04T03:04:25.746Z,5.05
2019-04-04T03:06:58.483Z,5.21
2019-04-04T03:09:27.106Z,5.06
2019-04-04T03:11:56.634Z,5.06
2019-04-04T03:14:30.109Z,5.16
2019-04-04T03:17:00.019Z,5.09
2019-04-04T03:19:30.185Z,5.09
2019-04-04T03:21:59.772Z,5.16
2019-04-04T03:24:29.275Z,5.23
2019-04-04T03:26:59.307Z,5.09
2019-04-04T03:29:29.168Z,5.28
2019-04-04T03:31:58.952Z,5.23
2019-04-04T03:34:28.833Z,5.13
2019-04-04T03:36:58.617Z,5.13
2019-04-04T03:39:28.526Z,5.15
2019-04-04T03:41:58.326Z,5.06
2019-04-04T03:44:28.025Z,5.06
2019-04-04T03:46:57.862Z,5.07
2019-04-04T03:49:27.476Z,5.08
2019-04-04T03:51:57.329Z,4.93
2019-04-04T03:54:28.245Z,4.93
2019-04-04T03:56:58.122Z,5.06
2019-04-04T03:59:29.563Z,4.83
2019-04-04T04:01:59.120Z,4.87
2019-04-04T04:04:28.943Z,4.87
2019-04-04T04:06:59.091Z,4.85
2019-04-04T04:09:29.505Z,4.94
2019-04-04T04:11:59.281Z,4.98
2019-04-04T04:14:28.971Z,4.98
2019-04-04T04:16:58.515Z,4.97
2019-04-04T04:19:30.991Z,4.89
2019-04-04T04:21:59.731Z,4.96
2019-04-04T04:24:30.322Z,4.84
2019-04-04T04:27:00.085Z,4.89
2019-04-04T04:29:30.794Z,4.89
2019-04-04T04:32:00.639Z,4.89
2019-04-04T04:34:33.998Z,5.03
2019-04-04T04:37:02.595Z,4.99
2019-04-04T04:39:35.767Z,4.99
2019-04-04T04:42:03.720Z,4.92
2019-04-04T04:44:37.819Z,4.92
2019-04-04T04:47:05.474Z,5.04
2019-04-04T04:49:35.523Z,5.16
2019-04-04T04:52:06.266Z,5.16
2019-04-04T04:54:35.965Z,5.09
2019-04-04T04:57:05.636Z,5.09
2019-04-04T04:59:35.288Z,5.17
2019-04-04T05:02:05.056Z,5.17
2019-04-04T05:04:34.728Z,5.24
2019-04-04T05:07:07.171Z,5.24
2019-04-04T05:09:36.732Z,5.30
2019-04-04T05:12:06.811Z,5.38
2019-04-04T05:14:36.506Z,5.48
2019-04-04T05:17:08.002Z,5.39
2019-04-04T05:19:38.279Z,5.39
2019-04-04T05:22:09.193Z,5.34
2019-04-04T05:24:39.450Z,5.41
2019-04-04T05:27:09.310Z,5.37
2019-04-04T05:29:40.144Z,5.37
2019-04-04T05:32:09.752Z,5.38
2019-04-04T05:34:39.685Z,5.38
2019-04-04T05:37:09.363Z,5.51
2019-04-04T05:39:39.023Z,5.58
2019-04-04T05:42:10.298Z,5.58
2019-04-04T05:44:41.724Z,5.48
2019-04-04T05:47:11.683Z,5.39
2019-04-04T05:49:41.392Z,5.45
2019-04-04T05:52:11.041Z,5.45
2019-04-04T05:54:40.700Z,5.33
2019-04-04T05:57:10.295Z,5.48
2019-04-04T05:59:42.228Z,5.52
2019-04-04T06:02:11.548Z,5.52
2019-04-04T06:04:41.865Z,5.68
2019-04-04T06:07:11.543Z,5.68
2019-04-04T06:09:42.031Z,5.62
2019-04-04T06:12:12.210Z,5.59
2019-04-04T06:14:41.630Z,5.66
2019-04-04T06:17:11.669Z,5.66
2019-04-04T06:19:44.367Z,5.62
2019-04-04T06:22:12.545Z,5.75
2019-04-04T06:24:42.802Z,5.71
2019-04-04T06:27:12.465Z,5.82
2019-04-04T06:29:42.446Z,5.86
2019-04-04T06:32:12.370Z,5.90
2019-04-04T06:34:44.218Z,6.01
2019-04-04T06:37:14.098Z,6.01
2019-04-04T06:39:44.330Z,6.10
2019-04-04T06:42:14.080Z,6.12
2019-04-04T06:44:47.757Z,6.13
2019-04-04T06:47:17.335Z,6.13
2019-04-04T06:49:46.747Z,6.27
2019-04-04T06:52:18.457Z,6.27
2019-04-04T06:54:49.072Z,6.26
2019-04-04T06:57:19.091Z,6.29
2019-04-04T06:59:55.355Z,6.29
2019-04-04T07:02:27.827Z,6.42
2019-04-04T07:04:57.629Z,6.42
2019-04-04T07:07:27.392Z,6.24
2019-04-04T07:09:59.138Z,6.24
2019-04-04T07:12:28.808Z,6.47
2019-04-04T07:14:58.348Z,6.47
2019-04-04T07:17:32.321Z,6.39
2019-04-04T07:20:02.045Z,6.61
2019-04-04T07:22:31.961Z,6.61
2019-04-04T07:25:05.621Z,6.45
2019-04-04T07:27:32.933Z,6.39
2019-04-04T07:30:02.508Z,6.39
2019-04-04T07:32:32.807Z,6.45
2019-04-04T07:35:03.129Z,6.30
2019-04-04T07:37:33.349Z,6.30
2019-04-04T07:40:04.407Z,6.60
2019-04-04T07:42:34.083Z,6.60
2019-04-04T07:45:04.378Z,6.59
2019-04-04T07:47:33.950Z,6.65
2019-04-04T07:50:03.897Z,6.27
2019-04-04T07:52:33.682Z,6.27
2019-04-04T07:55:04.142Z,6.51
2019-04-04T07:57:33.900Z,6.48
2019-04-04T08:00:04.740Z,6.48
2019-04-04T08:02:34.369Z,6.66
2019-04-04T08:05:04.952Z,6.69
2019-04-04T08:07:34.526Z,6.71
2019-04-04T08:10:04.550Z,6.83
2019-04-04T08:12:34.162Z,6.83
2019-04-04T08:15:04.504Z,6.95
2019-04-04T08:17:34.649Z,7.01
2019-04-04T08:20:04.394Z,7.01
2019-04-04T08:22:39.601Z,7.04
2019-04-04T08:25:08.267Z,7.19
2019-04-04T08:27:42.545Z,7.19
2019-04-04T08:30:14.768Z,7.06
2019-04-04T08:32:45.625Z,7.25
2019-04-04T08:35:15.342Z,7.34
2019-04-04T08:37:45.031Z,7.34
2019-04-04T08:40:17.663Z,7.30
2019-04-04T08:42:47.380Z,7.04
2019-04-04T08:45:17.156Z,7.44
2019-04-04T08:47:47.313Z,7.39
2019-04-04T08:50:17.135Z,7.39
2019-04-04T08:52:47.287Z,7.54
2019-04-04T08:55:16.949Z,7.54
2019-04-04T08:57:46.509Z,7.49
2019-04-04T09:00:16.976Z,7.49
2019-04-04T09:02:46.625Z,7.46
2019-04-04T09:05:16.762Z,7.54
2019-04-04T09:07:46.759Z,7.54
2019-04-04T09:10:16.451Z,7.64
2019-04-04T09:12:46.300Z,7.44
2019-04-04T09:15:20.603Z,7.44
2019-04-04T09:17:50.858Z,7.50
2019-04-04T09:20:20.548Z,7.57
2019-04-04T09:22:50.304Z,7.57
2019-04-04T09:25:20.319Z,7.45
2019-04-04T09:27:50.794Z,7.45
2019-04-04T09:30:20.444Z,7.31
2019-04-04T09:32:50.249Z,7.31
2019-04-04T09:35:20.092Z,7.22
2019-04-04T09:37:50.552Z,7.18
2019-04-04T09:40:24.161Z,7.03
2019-04-04T09:42:55.758Z,7.13
2019-04-04T09:45:25.689Z,7.20
2019-04-04T09:47:55.421Z,7.20
2019-04-04T09:50:25.271Z,7.07
2019-04-04T09:52:55.144Z,7.23
2019-04-04T09:55:25.231Z,7.23
2019-04-04T09:57:55.147Z,7.13
2019-04-04T10:00:24.748Z,7.05
2019-04-04T10:02:54.610Z,7.05
2019-04-04T10:05:24.560Z,7.01
2019-04-04T10:07:53.970Z,7.01
2019-04-04T10:10:23.760Z,7.07
2019-04-04T10:12:53.372Z,7.10
2019-04-04T10:15:23.361Z,7.17
2019-04-04T10:17:53.882Z,7.17
2019-04-04T10:20:23.581Z,7.14
2019-04-04T10:22:55.138Z,7.15
2019-04-04T10:25:25.081Z,6.86
2019-04-04T10:27:55.224Z,7.19
2019-04-04T10:30:25.319Z,7.14
2019-04-04T10:32:56.228Z,7.21
2019-04-04T10:35:26.132Z,7.29
2019-04-04T10:37:55.808Z,7.21
2019-04-04T10:40:25.528Z,7.21
2019-04-04T10:42:55.096Z,6.88
2019-04-04T10:45:26.900Z,7.20
2019-04-04T10:47:58.396Z,7.33
2019-04-04T10:50:31.268Z,7.07
2019-04-04T10:53:02.695Z,7.04
2019-04-04T10:55:43.237Z,7.02
2019-04-04T10:58:12.935Z,7.02
2019-04-04T11:00:42.492Z,6.99
2019-04-04T11:03:14.049Z,6.99
2019-04-04T11:05:47.531Z,6.99
2019-04-04T11:08:20.306Z,7.05
2019-04-04T11:10:53.400Z,6.52
2019-04-04T11:13:32.802Z,6.52
2019-04-04T11:15:56.406Z,6.79
2019-04-04T11:18:26.236Z,6.75
2019-04-04T11:20:58.550Z,6.82
2019-04-04T11:23:28.309Z,6.62
2019-04-04T11:26:00.106Z,6.60
2019-04-04T11:28:31.349Z,6.60
2019-04-04T11:31:01.663Z,6.68
2019-04-04T11:33:31.922Z,6.49
2019-04-04T11:36:01.472Z,6.49
2019-04-04T11:38:37.235Z,6.45
2019-04-04T11:41:08.058Z,6.33
2019-04-04T11:43:39.811Z,6.26
2019-04-04T11:46:09.586Z,6.26
2019-04-04T11:48:39.381Z,6.28
2019-04-04T11:51:10.711Z,6.25
2019-04-04T11:53:40.283Z,6.25
2019-04-04T11:56:09.824Z,6.45
2019-04-04T11:58:39.788Z,6.45
2019-04-04T12:01:11.269Z,6.41
2019-04-04T12:03:42.824Z,6.10
2019-04-04T12:06:14.676Z,6.10
2019-04-04T12:08:47.149Z,6.34
2019-04-04T12:11:17.235Z,6.46
2019-04-04T12:13:50.702Z,6.46
2019-04-04T12:16:21.862Z,6.30
2019-04-04T12:18:51.944Z,6.30
2019-04-04T12:21:21.640Z,5.97
2019-04-04T12:23:51.702Z,6.34
2019-04-04T12:26:21.477Z,6.43
2019-04-04T12:28:52.609Z,6.43
2019-04-04T12:31:22.299Z,6.70
2019-04-04T12:33:52.714Z,6.86
2019-04-04T12:36:25.314Z,6.86
2019-04-04T12:38:55.491Z,6.67
2019-04-04T12:41:28.119Z,6.36
2019-04-04T12:43:57.383Z,6.55
2019-04-04T12:46:27.428Z,6.45
2019-04-04T12:48:57.243Z,6.47
2019-04-04T12:51:28.433Z,6.71
2019-04-04T12:54:00.994Z,6.49
2019-04-04T12:56:30.902Z,6.49
2019-04-04T12:59:00.547Z,6.52
2019-04-04T13:01:30.214Z,6.42
2019-04-04T13:04:00.541Z,6.42
2019-04-04T13:06:31.063Z,6.28
2019-04-04T13:09:01.691Z,6.56
2019-04-04T13:11:31.736Z,6.56
2019-04-04T13:14:01.814Z,6.41
2019-04-04T13:16:32.701Z,6.55
2019-04-04T13:19:02.559Z,6.78
2019-04-04T13:21:34.134Z,6.78
2019-04-04T13:24:03.744Z,6.61
2019-04-04T13:26:34.505Z,6.45
2019-04-04T13:29:06.332Z,6.42
2019-04-04T13:31:36.350Z,6.42
2019-04-04T13:34:06.323Z,6.58
2019-04-04T13:36:38.089Z,6.37
2019-04-04T13:39:11.376Z,6.59
2019-04-04T13:41:41.714Z,6.53
2019-04-04T13:44:14.163Z,6.53
2019-04-04T13:46:45.903Z,6.59
2019-04-04T13:49:16.085Z,6.54
2019-04-04T13:51:45.754Z,6.53
2019-04-04T13:54:15.560Z,6.53
2019-04-04T13:56:48.441Z,6.46
2019-04-04T13:59:18.168Z,6.61
2019-04-04T14:01:48.052Z,6.72
2019-04-04T14:04:20.325Z,6.86
2019-04-04T14:06:51.386Z,6.76
2019-04-04T14:09:21.637Z,6.99
2019-04-04T14:11:54.337Z,6.62
2019-04-04T14:14:27.368Z,6.97
2019-04-04T14:16:57.712Z,6.97
2019-04-04T14:19:27.556Z,6.73
2019-04-04T14:22:07.624Z,6.73
2019-04-04T14:24:40.193Z,6.84
2019-04-04T14:27:09.775Z,7.03
2019-04-04T14:29:39.212Z,6.84
2019-04-04T14:32:08.897Z,6.84
2019-04-04T14:34:42.386Z,6.71
2019-04-04T14:37:14.036Z,6.88
2019-04-04T14:39:44.137Z,6.88
2019-04-04T14:42:14.083Z,6.75
2019-04-04T14:44:47.307Z,6.81
2019-04-04T14:47:17.514Z,7.05
2019-04-04T14:49:47.918Z,7.05
2019-04-04T14:52:19.956Z,7.27
2019-04-04T14:54:49.465Z,7.27
2019-04-04T14:57:18.834Z,6.90
2019-04-04T14:59:48.702Z,7.00
2019-04-04T15:02:21.232Z,6.73
2019-04-04T15:04:51.133Z,6.73
2019-04-04T15:07:21.197Z,6.62
2019-04-04T15:09:51.150Z,6.77
2019-04-04T15:12:21.252Z,6.57
2019-04-04T15:14:51.134Z,6.52
2019-04-04T15:17:23.789Z,6.52
2019-04-04T15:19:53.413Z,6.46
2019-04-04T15:22:23.960Z,6.39
2019-04-04T15:24:53.470Z,6.32
2019-04-04T15:27:23.359Z,6.32
2019-04-04T15:29:56.137Z,6.30
2019-04-04T15:32:25.832Z,6.31
2019-04-04T15:34:55.214Z,6.16
2019-04-04T15:37:25.020Z,6.13
2019-04-04T15:39:54.870Z,5.97
2019-04-04T15:42:24.479Z,6.10
2019-04-04T15:47:30.265Z,6.11
2019-04-04T15:50:00.149Z,6.78
2019-04-04T15:52:29.536Z,6.78
2019-04-04T15:55:00.505Z,6.71
2019-04-04T15:57:32.418Z,6.46
2019-04-04T16:00:03.255Z,6.38
2019-04-04T16:02:33.414Z,6.38
2019-04-04T16:05:03.612Z,6.36
2019-04-04T16:07:35.205Z,6.15
2019-04-04T16:10:05.674Z,6.44
2019-04-04T16:12:38.460Z,6.49
2019-04-04T16:15:10.576Z,6.49
2019-04-04T16:17:40.382Z,6.61
2019-04-04T16:20:13.096Z,6.43
2019-04-04T16:22:45.191Z,6.36
2019-04-04T16:25:18.309Z,6.36
2019-04-04T16:27:48.337Z,6.37
2019-04-04T16:30:17.974Z,6.52
2019-04-04T16:32:47.764Z,6.58
2019-04-04T16:35:19.294Z,6.58
2019-04-04T16:37:51.269Z,6.31
2019-04-04T16:40:21.129Z,6.37
2019-04-04T16:42:51.039Z,6.37
2019-04-04T16:45:21.116Z,6.60
2019-04-04T16:47:55.599Z,6.63
2019-04-04T16:50:28.038Z,6.63
2019-04-04T16:52:59.664Z,6.35
2019-04-04T16:55:30.097Z,6.50
2019-04-04T16:57:59.585Z,6.52
2019-04-04T17:00:29.727Z,6.52
2019-04-04T17:03:00.124Z,6.78
2019-04-04T17:05:29.757Z,6.49
2019-04-04T17:08:01.248Z,6.29
2019-04-04T17:10:36.896Z,6.38
2019-04-04T17:13:07.010Z,6.38
2019-04-04T17:15:39.795Z,6.37
2019-04-04T17:18:09.743Z,6.07
2019-04-04T17:20:40.711Z,6.15
2019-04-04T17:23:10.338Z,6.15
2019-04-04T17:25:40.199Z,6.22
2019-04-04T17:28:12.719Z,6.11
2019-04-04T17:30:46.397Z,6.14
2019-04-04T17:33:16.025Z,6.14
2019-04-04T17:35:47.408Z,6.14
2019-04-04T17:38:17.201Z,6.23
2019-04-04T17:40:46.960Z,6.19
2019-04-04T17:43:17.568Z,6.10
2019-04-04T17:45:47.350Z,6.15
2019-04-04T17:48:17.024Z,6.02
2019-04-04T17:50:47.140Z,6.02
2019-04-04T17:55:56.117Z,6.42
2019-04-04T17:58:26.347Z,6.74
2019-04-04T18:00:56.360Z,6.47
2019-04-04T18:03:26.085Z,6.43
2019-04-04T18:05:55.801Z,6.43
2019-04-04T18:08:27.394Z,6.34
2019-04-04T18:11:04.546Z,6.34
2019-04-04T18:13:43.391Z,6.36
2019-04-04T18:16:12.393Z,6.26
2019-04-04T18:18:42.372Z,6.50
2019-04-04T18:21:12.406Z,6.34
2019-04-04T18:23:42.707Z,6.48
2019-04-04T18:26:12.388Z,6.48
2019-04-04T18:28:42.089Z,6.50
2019-04-04T18:31:11.952Z,6.16
2019-04-04T18:33:46.106Z,6.30
2019-04-04T18:36:16.140Z,6.43
2019-04-04T18:38:46.071Z,6.35
2019-04-04T18:41:16.135Z,6.35
2019-04-04T18:43:46.105Z,6.33
2019-04-04T18:46:19.257Z,6.33
2019-04-04T18:48:54.482Z,6.46
2019-04-04T18:51:25.671Z,6.43
2019-04-04T18:53:58.692Z,6.50
2019-04-04T18:56:28.467Z,6.45
2019-04-04T18:58:58.299Z,6.49
2019-04-04T19:01:28.189Z,6.41
2019-04-04T19:04:01.347Z,6.41
2019-04-04T19:06:31.207Z,6.28
2019-04-04T19:09:14.255Z,6.46
2019-04-04T19:11:35.290Z,6.39
2019-04-04T19:14:05.387Z,6.39
2019-04-04T19:16:35.203Z,6.41
2019-04-04T19:19:05.256Z,6.44
2019-04-04T19:21:35.289Z,6.42
2019-04-04T19:24:05.514Z,6.52
2019-04-04T19:26:36.001Z,6.54
2019-04-04T19:29:07.261Z,6.54
2019-04-04T19:31:36.976Z,6.64
2019-04-04T19:34:06.603Z,6.34
2019-04-04T19:36:36.352Z,6.41
2019-04-04T19:39:11.217Z,6.49
2019-04-04T19:41:41.005Z,6.49
2019-04-04T19:44:10.777Z,6.55
2019-04-04T19:46:41.598Z,6.36
2019-04-04T19:49:11.243Z,6.45
2019-04-04T19:51:45.606Z,6.38
2019-04-04T19:54:19.388Z,6.50
2019-04-04T19:56:49.232Z,6.42
2019-04-04T19:59:20.061Z,6.37
2019-04-04T20:01:49.574Z,6.37
2019-04-04T20:04:19.091Z,6.30
2019-04-04T20:06:49.300Z,6.18
2019-04-04T20:09:22.015Z,6.26
2019-04-04T20:11:51.521Z,6.06
2019-04-04T20:14:27.412Z,6.17
2019-04-04T20:16:55.614Z,5.95
2019-04-04T20:19:25.323Z,5.89
2019-04-04T20:21:56.609Z,5.99
2019-04-04T20:24:29.131Z,5.94
2019-04-04T20:29:23.388Z,6.46
2019-04-04T20:31:53.719Z,6.46
2019-04-04T20:34:23.359Z,6.31
2019-04-04T20:36:53.244Z,6.24
2019-04-04T20:39:22.989Z,5.84
2019-04-04T20:41:52.696Z,6.07
2019-04-04T20:44:23.710Z,6.07
2019-04-04T20:46:54.156Z,6.11
2019-04-04T20:49:23.857Z,5.91
2019-04-04T20:51:53.670Z,5.85
2019-04-04T20:54:23.302Z,5.85
2019-04-04T20:56:53.080Z,5.95
2019-04-04T20:59:23.099Z,5.95
2019-04-04T21:01:53.613Z,5.86
2019-04-04T21:04:23.777Z,5.86
2019-04-04T21:09:28.382Z,6.27
2019-04-04T21:11:58.468Z,6.69
2019-04-04T21:14:28.890Z,6.69
2019-04-04T21:17:01.589Z,6.52
2019-04-04T21:19:33.854Z,6.52
2019-04-04T21:22:03.616Z,6.41
2019-04-04T21:24:33.572Z,6.41
2019-04-04T21:27:03.181Z,6.08
2019-04-04T21:29:33.701Z,6.09
2019-04-04T21:32:03.943Z,5.97
2019-04-04T21:34:33.626Z,5.94
2019-04-04T21:37:03.555Z,5.94
2019-04-04T21:39:33.324Z,6.02
2019-04-04T21:42:03.142Z,6.03
2019-04-04T21:44:33.033Z,6.02
2019-04-04T21:47:03.245Z,6.02
2019-04-04T21:49:32.901Z,5.96
2019-04-04T21:52:02.879Z,5.98
2019-04-04T21:54:34.285Z,5.90
2019-04-04T21:57:04.433Z,5.80
2019-04-04T21:59:34.294Z,5.80
2019-04-04T22:02:06.192Z,5.84
2019-04-04T22:04:36.040Z,5.87
2019-04-04T22:07:05.707Z,5.77
2019-04-04T22:09:35.467Z,5.77
2019-04-04T22:12:05.215Z,5.78
2019-04-04T22:14:35.002Z,5.53
2019-04-04T22:17:04.879Z,5.58
2019-04-04T22:19:34.986Z,5.79
2019-04-04T22:22:04.585Z,5.80
2019-04-04T22:24:37.426Z,5.80
2019-04-04T22:27:07.315Z,5.78
2019-04-04T22:29:37.382Z,5.78
2019-04-04T22:32:07.207Z,5.81
2019-04-04T22:34:38.713Z,5.85
2019-04-04T22:37:08.364Z,5.79
2019-04-04T22:39:39.735Z,5.82
2019-04-04T22:42:09.487Z,5.82
2019-04-04T22:44:39.481Z,5.81
2019-04-04T22:47:09.132Z,5.67
2019-04-04T22:49:38.808Z,5.88
2019-04-04T22:52:11.428Z,5.89
2019-04-04T22:54:41.100Z,5.95
2019-04-04T22:57:10.990Z,5.93
2019-04-04T22:59:41.040Z,6.05
2019-04-04T23:02:10.727Z,5.90
2019-04-04T23:04:40.624Z,5.92
2019-04-04T23:07:10.357Z,5.92
2019-04-04T23:09:40.504Z,5.93
2019-04-04T23:12:10.245Z,5.99
2019-04-04T23:14:47.828Z,5.99
2019-04-04T23:17:11.408Z,6.10
2019-04-04T23:19:41.308Z,5.99
2019-04-04T23:22:11.005Z,5.84
2019-04-04T23:24:40.569Z,5.89
2019-04-04T23:27:10.409Z,5.79
2019-04-04T23:29:42.612Z,5.76
2019-04-04T23:32:11.874Z,5.74
2019-04-04T23:34:41.815Z,5.74
2019-04-04T23:37:12.164Z,5.81
2019-04-04T23:39:41.774Z,5.81
2019-04-04T23:42:11.234Z,5.85
2019-04-04T23:44:41.544Z,5.80
2019-04-04T23:47:11.331Z,5.72
2019-04-04T23:49:40.938Z,5.87
2019-04-04T23:52:12.925Z,5.78
2019-04-04T23:54:42.547Z,5.78
2019-04-04T23:57:15.341Z,5.78
2019-04-04T23:59:44.989Z,5.86
